Knoxville, Arkansas
Current Conditions -  °F | °C
As of 1:53 PM on Saturday 25 Oct 2014 (Local Time) from KRUE Reporting Station
Clear Clear  
Wind Chill: 82°   Ceiling: Unl
Heat Index: 83°   Visibility: 10mi
Dew Point: 63°   Wind: 5mph
Humidity: 52%   Direction: 280°W
Pressure: 30.05"   Gusts: NA
Location:  35.38°N, 93.36°W
Report Text: KRUE 251853Z AUTO 28004KT 10SM CLR 28/17 A3005 RMK AO2 SLP170 T02780172
Loading
Personal Weather Stations






























Interactive Weather Map
Tropical Storm Tracking
New forecast layout! Learn more

10-Day Weather Forecast

Advertisements
Track Severe Weather on mobile